sensor_id;sensor_type;location;lat;lon;timestamp;P1;durP1;ratioP1;P2;durP2;ratioP2
10550;SDS011;5324;50.684;3.862;2024-01-25T00:01:16;26.17;;;5.97;;
10550;SDS011;5324;50.684;3.862;2024-01-25T00:03:42;24.17;;;6.27;;
10550;SDS011;5324;50.684;3.862;2024-01-25T00:06:08;24.60;;;5.20;;
10550;SDS011;5324;50.684;3.862;2024-01-25T00:08:34;25.10;;;5.53;;
10550;SDS011;5324;50.684;3.862;2024-01-25T00:11:03;27.53;;;6.13;;
10550;SDS011;5324;50.684;3.862;2024-01-25T00:13:30;26.67;;;6.23;;
10550;SDS011;5324;50.684;3.862;2024-01-25T00:15:56;25.80;;;6.50;;
10550;SDS011;5324;50.684;3.862;2024-01-25T00:18:22;27.87;;;6.43;;
10550;SDS011;5324;50.684;3.862;2024-01-25T00:20:49;17.07;;;6.00;;
10550;SDS011;5324;50.684;3.862;2024-01-25T00:23:15;28.40;;;6.00;;
10550;SDS011;5324;50.684;3.862;2024-01-25T00:25:41;23.63;;;6.20;;
10550;SDS011;5324;50.684;3.862;2024-01-25T00:28:07;29.23;;;6.30;;
10550;SDS011;5324;50.684;3.862;2024-01-25T00:30:33;23.47;;;6.57;;
10550;SDS011;5324;50.684;3.862;2024-01-25T00:32:59;24.90;;;5.70;;
10550;SDS011;5324;50.684;3.862;2024-01-25T00:35:26;24.97;;;6.57;;
10550;SDS011;5324;50.684;3.862;2024-01-25T00:37:52;22.87;;;6.30;;
10550;SDS011;5324;50.684;3.862;2024-01-25T00:40:19;25.93;;;6.43;;
10550;SDS011;5324;50.684;3.862;2024-01-25T00:42:45;27.57;;;6.27;;
10550;SDS011;5324;50.684;3.862;2024-01-25T00:45:18;18.90;;;5.13;;
10550;SDS011;5324;50.684;3.862;2024-01-25T00:47:45;22.30;;;5.87;;
10550;SDS011;5324;50.684;3.862;2024-01-25T00:50:11;19.37;;;5.00;;
10550;SDS011;5324;50.684;3.862;2024-01-25T00:52:38;30.30;;;6.30;;
10550;SDS011;5324;50.684;3.862;2024-01-25T00:55:04;32.53;;;6.60;;
10550;SDS011;5324;50.684;3.862;2024-01-25T00:57:30;24.53;;;6.30;;
10550;SDS011;5324;50.684;3.862;2024-01-25T00:59:56;22.37;;;5.30;;
10550;SDS011;5324;50.684;3.862;2024-01-25T01:02:22;27.50;;;6.43;;
10550;SDS011;5324;50.684;3.862;2024-01-25T01:04:49;24.60;;;5.30;;
10550;SDS011;5324;50.684;3.862;2024-01-25T01:07:15;22.70;;;6.13;;
10550;SDS011;5324;50.684;3.862;2024-01-25T01:09:41;27.63;;;5.70;;
10550;SDS011;5324;50.684;3.862;2024-01-25T01:12:07;23.73;;;5.90;;
10550;SDS011;5324;50.684;3.862;2024-01-25T01:14:33;23.17;;;6.07;;
10550;SDS011;5324;50.684;3.862;2024-01-25T01:16:59;17.43;;;5.20;;
10550;SDS011;5324;50.684;3.862;2024-01-25T01:19:25;18.53;;;5.43;;
10550;SDS011;5324;50.684;3.862;2024-01-25T01:21:51;24.70;;;5.67;;
10550;SDS011;5324;50.684;3.862;2024-01-25T01:24:17;29.03;;;5.90;;
10550;SDS011;5324;50.684;3.862;2024-01-25T01:26:43;28.50;;;6.40;;
10550;SDS011;5324;50.684;3.862;2024-01-25T01:29:11;22.50;;;6.47;;
10550;SDS011;5324;50.684;3.862;2024-01-25T01:31:37;24.40;;;5.83;;
10550;SDS011;5324;50.684;3.862;2024-01-25T01:34:03;23.33;;;6.07;;
10550;SDS011;5324;50.684;3.862;2024-01-25T01:36:29;21.53;;;6.40;;
10550;SDS011;5324;50.684;3.862;2024-01-25T01:38:55;20.63;;;5.30;;
10550;SDS011;5324;50.684;3.862;2024-01-25T01:41:21;22.17;;;6.30;;
10550;SDS011;5324;50.684;3.862;2024-01-25T01:43:47;27.10;;;5.93;;
10550;SDS011;5324;50.684;3.862;2024-01-25T01:46:24;21.93;;;5.93;;
10550;SDS011;5324;50.684;3.862;2024-01-25T01:48:54;27.00;;;6.70;;
10550;SDS011;5324;50.684;3.862;2024-01-25T01:51:20;19.93;;;5.13;;
10550;SDS011;5324;50.684;3.862;2024-01-25T01:53:46;22.77;;;5.63;;
10550;SDS011;5324;50.684;3.862;2024-01-25T01:56:12;23.57;;;5.23;;
10550;SDS011;5324;50.684;3.862;2024-01-25T01:58:39;25.23;;;5.93;;
10550;SDS011;5324;50.684;3.862;2024-01-25T02:01:05;25.93;;;5.43;;
10550;SDS011;5324;50.684;3.862;2024-01-25T02:03:32;22.07;;;5.23;;
10550;SDS011;5324;50.684;3.862;2024-01-25T02:05:58;20.77;;;5.47;;
10550;SDS011;5324;50.684;3.862;2024-01-25T02:08:28;20.37;;;5.70;;
10550;SDS011;5324;50.684;3.862;2024-01-25T02:10:54;20.03;;;6.27;;
10550;SDS011;5324;50.684;3.862;2024-01-25T02:13:20;18.73;;;4.93;;
10550;SDS011;5324;50.684;3.862;2024-01-25T02:15:47;18.43;;;4.83;;
10550;SDS011;5324;50.684;3.862;2024-01-25T02:18:13;18.67;;;5.70;;
10550;SDS011;5324;50.684;3.862;2024-01-25T02:20:40;21.33;;;5.80;;
10550;SDS011;5324;50.684;3.862;2024-01-25T02:23:06;21.37;;;5.30;;
10550;SDS011;5324;50.684;3.862;2024-01-25T02:25:32;17.17;;;4.80;;
10550;SDS011;5324;50.684;3.862;2024-01-25T02:27:58;19.67;;;5.40;;
10550;SDS011;5324;50.684;3.862;2024-01-25T02:30:24;26.13;;;6.43;;
10550;SDS011;5324;50.684;3.862;2024-01-25T02:32:50;23.27;;;5.17;;
10550;SDS011;5324;50.684;3.862;2024-01-25T02:35:17;20.00;;;4.90;;
10550;SDS011;5324;50.684;3.862;2024-01-25T02:37:43;21.23;;;5.70;;
10550;SDS011;5324;50.684;3.862;2024-01-25T02:40:09;26.90;;;6.30;;
10550;SDS011;5324;50.684;3.862;2024-01-25T02:42:35;20.27;;;5.50;;
10550;SDS011;5324;50.684;3.862;2024-01-25T02:45:01;22.03;;;6.03;;
10550;SDS011;5324;50.684;3.862;2024-01-25T02:47:28;22.60;;;4.73;;
10550;SDS011;5324;50.684;3.862;2024-01-25T02:49:54;22.87;;;5.60;;
10550;SDS011;5324;50.684;3.862;2024-01-25T02:52:20;24.33;;;5.30;;
10550;SDS011;5324;50.684;3.862;2024-01-25T02:54:47;21.53;;;5.03;;
10550;SDS011;5324;50.684;3.862;2024-01-25T02:57:14;21.67;;;6.20;;
10550;SDS011;5324;50.684;3.862;2024-01-25T02:59:40;25.47;;;6.33;;
10550;SDS011;5324;50.684;3.862;2024-01-25T03:02:06;22.07;;;6.40;;
10550;SDS011;5324;50.684;3.862;2024-01-25T03:04:32;20.67;;;5.17;;
10550;SDS011;5324;50.684;3.862;2024-01-25T03:06:58;22.87;;;6.30;;
10550;SDS011;5324;50.684;3.862;2024-01-25T03:09:24;19.23;;;5.03;;
10550;SDS011;5324;50.684;3.862;2024-01-25T03:11:50;22.57;;;5.30;;
10550;SDS011;5324;50.684;3.862;2024-01-25T03:14:16;27.83;;;6.10;;
10550;SDS011;5324;50.684;3.862;2024-01-25T03:16:42;22.27;;;5.90;;
10550;SDS011;5324;50.684;3.862;2024-01-25T03:19:10;23.93;;;4.77;;
10550;SDS011;5324;50.684;3.862;2024-01-25T03:21:36;23.80;;;5.50;;
10550;SDS011;5324;50.684;3.862;2024-01-25T03:24:02;26.53;;;6.57;;
10550;SDS011;5324;50.684;3.862;2024-01-25T03:26:28;26.17;;;6.47;;
10550;SDS011;5324;50.684;3.862;2024-01-25T03:28:54;22.57;;;6.50;;
10550;SDS011;5324;50.684;3.862;2024-01-25T03:31:20;24.87;;;5.87;;
10550;SDS011;5324;50.684;3.862;2024-01-25T03:33:46;20.03;;;6.00;;
10550;SDS011;5324;50.684;3.862;2024-01-25T03:36:15;27.93;;;5.87;;
10550;SDS011;5324;50.684;3.862;2024-01-25T03:38:41;24.63;;;5.67;;
10550;SDS011;5324;50.684;3.862;2024-01-25T03:41:08;21.33;;;5.30;;
10550;SDS011;5324;50.684;3.862;2024-01-25T03:43:34;19.77;;;5.40;;
10550;SDS011;5324;50.684;3.862;2024-01-25T03:46:01;26.70;;;6.70;;
10550;SDS011;5324;50.684;3.862;2024-01-25T03:48:30;22.20;;;5.57;;
10550;SDS011;5324;50.684;3.862;2024-01-25T03:50:57;19.57;;;4.47;;
10550;SDS011;5324;50.684;3.862;2024-01-25T03:53:23;16.70;;;5.40;;
10550;SDS011;5324;50.684;3.862;2024-01-25T03:55:49;19.10;;;5.10;;
10550;SDS011;5324;50.684;3.862;2024-01-25T03:58:18;18.83;;;5.00;;
10550;SDS011;5324;50.684;3.862;2024-01-25T04:00:44;23.63;;;5.87;;
10550;SDS011;5324;50.684;3.862;2024-01-25T04:03:10;22.77;;;6.00;;
10550;SDS011;5324;50.684;3.862;2024-01-25T04:05:37;23.40;;;6.33;;
10550;SDS011;5324;50.684;3.862;2024-01-25T04:08:04;15.07;;;4.37;;
10550;SDS011;5324;50.684;3.862;2024-01-25T04:10:30;11.40;;;3.57;;
10550;SDS011;5324;50.684;3.862;2024-01-25T04:12:56;19.37;;;4.70;;
10550;SDS011;5324;50.684;3.862;2024-01-25T04:15:22;12.83;;;4.60;;
10550;SDS011;5324;50.684;3.862;2024-01-25T04:17:49;14.07;;;4.93;;
10550;SDS011;5324;50.684;3.862;2024-01-25T04:20:15;19.53;;;5.43;;
10550;SDS011;5324;50.684;3.862;2024-01-25T04:22:41;20.50;;;6.50;;
10550;SDS011;5324;50.684;3.862;2024-01-25T04:25:07;22.17;;;6.37;;
10550;SDS011;5324;50.684;3.862;2024-01-25T04:27:33;23.60;;;6.63;;
10550;SDS011;5324;50.684;3.862;2024-01-25T04:29:59;28.27;;;7.23;;
10550;SDS011;5324;50.684;3.862;2024-01-25T04:32:25;25.80;;;6.27;;
10550;SDS011;5324;50.684;3.862;2024-01-25T04:34:51;15.63;;;5.57;;
10550;SDS011;5324;50.684;3.862;2024-01-25T04:37:17;24.17;;;6.40;;
10550;SDS011;5324;50.684;3.862;2024-01-25T04:39:43;20.97;;;6.97;;
10550;SDS011;5324;50.684;3.862;2024-01-25T04:42:09;23.23;;;6.63;;
10550;SDS011;5324;50.684;3.862;2024-01-25T04:44:36;20.97;;;6.17;;
10550;SDS011;5324;50.684;3.862;2024-01-25T04:47:02;19.10;;;6.33;;
10550;SDS011;5324;50.684;3.862;2024-01-25T04:49:28;19.63;;;5.40;;
10550;SDS011;5324;50.684;3.862;2024-01-25T04:51:54;26.23;;;5.93;;
10550;SDS011;5324;50.684;3.862;2024-01-25T04:54:20;21.67;;;5.80;;
10550;SDS011;5324;50.684;3.862;2024-01-25T04:56:46;25.43;;;5.80;;
10550;SDS011;5324;50.684;3.862;2024-01-25T04:59:12;21.63;;;5.93;;
10550;SDS011;5324;50.684;3.862;2024-01-25T05:01:38;22.17;;;5.97;;
10550;SDS011;5324;50.684;3.862;2024-01-25T05:04:04;15.50;;;5.10;;
10550;SDS011;5324;50.684;3.862;2024-01-25T05:06:30;23.50;;;6.43;;
10550;SDS011;5324;50.684;3.862;2024-01-25T05:08:56;18.77;;;5.63;;
10550;SDS011;5324;50.684;3.862;2024-01-25T05:11:22;14.53;;;4.93;;
10550;SDS011;5324;50.684;3.862;2024-01-25T05:13:48;15.87;;;4.40;;
10550;SDS011;5324;50.684;3.862;2024-01-25T05:16:14;21.37;;;6.23;;
10550;SDS011;5324;50.684;3.862;2024-01-25T05:18:40;19.00;;;6.10;;
10550;SDS011;5324;50.684;3.862;2024-01-25T05:21:06;24.17;;;6.37;;
10550;SDS011;5324;50.684;3.862;2024-01-25T05:23:32;23.23;;;6.87;;
10550;SDS011;5324;50.684;3.862;2024-01-25T05:25:58;22.93;;;7.00;;
10550;SDS011;5324;50.684;3.862;2024-01-25T05:28:24;28.77;;;5.90;;
10550;SDS011;5324;50.684;3.862;2024-01-25T05:30:50;21.67;;;6.77;;
10550;SDS011;5324;50.684;3.862;2024-01-25T05:33:16;20.57;;;6.97;;
10550;SDS011;5324;50.684;3.862;2024-01-25T05:35:43;23.10;;;7.20;;
10550;SDS011;5324;50.684;3.862;2024-01-25T05:38:09;22.97;;;6.87;;
10550;SDS011;5324;50.684;3.862;2024-01-25T05:40:35;19.53;;;7.47;;
10550;SDS011;5324;50.684;3.862;2024-01-25T05:43:01;19.07;;;6.57;;
10550;SDS011;5324;50.684;3.862;2024-01-25T05:45:28;18.90;;;7.43;;
10550;SDS011;5324;50.684;3.862;2024-01-25T05:47:55;16.77;;;6.07;;
10550;SDS011;5324;50.684;3.862;2024-01-25T05:50:21;14.77;;;5.80;;
10550;SDS011;5324;50.684;3.862;2024-01-25T05:52:47;15.93;;;6.60;;
10550;SDS011;5324;50.684;3.862;2024-01-25T05:55:13;16.87;;;6.23;;
10550;SDS011;5324;50.684;3.862;2024-01-25T05:57:42;13.57;;;5.63;;
10550;SDS011;5324;50.684;3.862;2024-01-25T06:00:08;12.97;;;6.17;;
10550;SDS011;5324;50.684;3.862;2024-01-25T06:02:36;13.00;;;5.50;;
10550;SDS011;5324;50.684;3.862;2024-01-25T06:05:02;10.23;;;5.07;;
10550;SDS011;5324;50.684;3.862;2024-01-25T06:07:28;12.73;;;6.23;;
10550;SDS011;5324;50.684;3.862;2024-01-25T06:09:54;12.00;;;6.00;;
10550;SDS011;5324;50.684;3.862;2024-01-25T06:12:20;11.53;;;5.80;;
10550;SDS011;5324;50.684;3.862;2024-01-25T06:14:46;11.87;;;6.30;;
10550;SDS011;5324;50.684;3.862;2024-01-25T06:17:13;10.60;;;5.53;;
10550;SDS011;5324;50.684;3.862;2024-01-25T06:19:39;13.13;;;5.77;;
10550;SDS011;5324;50.684;3.862;2024-01-25T06:22:05;15.03;;;6.23;;
10550;SDS011;5324;50.684;3.862;2024-01-25T06:24:31;15.70;;;6.83;;
10550;SDS011;5324;50.684;3.862;2024-01-25T06:26:57;16.47;;;6.20;;
10550;SDS011;5324;50.684;3.862;2024-01-25T06:29:23;16.23;;;7.20;;
10550;SDS011;5324;50.684;3.862;2024-01-25T06:31:49;18.40;;;7.10;;
10550;SDS011;5324;50.684;3.862;2024-01-25T06:34:16;17.43;;;7.80;;
10550;SDS011;5324;50.684;3.862;2024-01-25T06:36:42;19.20;;;7.43;;
10550;SDS011;5324;50.684;3.862;2024-01-25T06:39:08;24.13;;;7.73;;
10550;SDS011;5324;50.684;3.862;2024-01-25T06:41:34;20.33;;;8.00;;
10550;SDS011;5324;50.684;3.862;2024-01-25T06:44:00;19.73;;;8.03;;
10550;SDS011;5324;50.684;3.862;2024-01-25T06:46:26;17.60;;;9.60;;
10550;SDS011;5324;50.684;3.862;2024-01-25T06:48:52;18.23;;;10.07;;
10550;SDS011;5324;50.684;3.862;2024-01-25T06:51:19;21.07;;;9.07;;
10550;SDS011;5324;50.684;3.862;2024-01-25T06:53:45;19.40;;;8.57;;
10550;SDS011;5324;50.684;3.862;2024-01-25T06:56:11;19.00;;;7.70;;
10550;SDS011;5324;50.684;3.862;2024-01-25T06:58:37;18.60;;;8.13;;
10550;SDS011;5324;50.684;3.862;2024-01-25T07:01:04;25.40;;;9.07;;
10550;SDS011;5324;50.684;3.862;2024-01-25T07:03:30;20.47;;;8.43;;
10550;SDS011;5324;50.684;3.862;2024-01-25T07:05:56;19.03;;;9.00;;
10550;SDS011;5324;50.684;3.862;2024-01-25T07:08:22;21.07;;;9.17;;
10550;SDS011;5324;50.684;3.862;2024-01-25T07:10:49;21.13;;;8.77;;
10550;SDS011;5324;50.684;3.862;2024-01-25T07:13:15;18.20;;;8.43;;
10550;SDS011;5324;50.684;3.862;2024-01-25T07:15:41;25.33;;;10.00;;
10550;SDS011;5324;50.684;3.862;2024-01-25T07:18:07;29.97;;;10.87;;
10550;SDS011;5324;50.684;3.862;2024-01-25T07:20:33;22.87;;;9.53;;
10550;SDS011;5324;50.684;3.862;2024-01-25T07:23:00;27.50;;;9.93;;
10550;SDS011;5324;50.684;3.862;2024-01-25T07:25:26;22.77;;;8.63;;
10550;SDS011;5324;50.684;3.862;2024-01-25T07:27:52;22.97;;;8.87;;
10550;SDS011;5324;50.684;3.862;2024-01-25T07:30:18;20.13;;;8.67;;
10550;SDS011;5324;50.684;3.862;2024-01-25T07:32:45;19.97;;;8.80;;
10550;SDS011;5324;50.684;3.862;2024-01-25T07:35:12;17.63;;;7.63;;
10550;SDS011;5324;50.684;3.862;2024-01-25T07:37:38;19.93;;;7.93;;
10550;SDS011;5324;50.684;3.862;2024-01-25T07:40:08;24.93;;;8.67;;
10550;SDS011;5324;50.684;3.862;2024-01-25T07:42:34;20.70;;;7.87;;
10550;SDS011;5324;50.684;3.862;2024-01-25T07:45:00;18.40;;;7.27;;
10550;SDS011;5324;50.684;3.862;2024-01-25T07:47:26;21.83;;;8.80;;
10550;SDS011;5324;50.684;3.862;2024-01-25T07:49:52;24.07;;;8.30;;
10550;SDS011;5324;50.684;3.862;2024-01-25T07:52:18;20.83;;;7.40;;
10550;SDS011;5324;50.684;3.862;2024-01-25T07:54:44;21.23;;;7.57;;
10550;SDS011;5324;50.684;3.862;2024-01-25T07:57:10;14.40;;;7.17;;
10550;SDS011;5324;50.684;3.862;2024-01-25T07:59:36;20.20;;;8.00;;
10550;SDS011;5324;50.684;3.862;2024-01-25T08:02:02;32.33;;;8.97;;
10550;SDS011;5324;50.684;3.862;2024-01-25T08:04:29;26.27;;;7.80;;
10550;SDS011;5324;50.684;3.862;2024-01-25T08:06:55;23.70;;;8.10;;
10550;SDS011;5324;50.684;3.862;2024-01-25T08:09:21;25.03;;;8.67;;
10550;SDS011;5324;50.684;3.862;2024-01-25T08:11:47;23.30;;;8.90;;
10550;SDS011;5324;50.684;3.862;2024-01-25T08:14:13;25.53;;;8.87;;
10550;SDS011;5324;50.684;3.862;2024-01-25T08:16:39;28.13;;;7.67;;
10550;SDS011;5324;50.684;3.862;2024-01-25T08:19:06;20.80;;;7.50;;
10550;SDS011;5324;50.684;3.862;2024-01-25T08:21:32;30.93;;;9.40;;
10550;SDS011;5324;50.684;3.862;2024-01-25T08:23:58;27.73;;;8.53;;
10550;SDS011;5324;50.684;3.862;2024-01-25T08:26:24;27.93;;;8.03;;
10550;SDS011;5324;50.684;3.862;2024-01-25T08:28:50;33.30;;;8.57;;
10550;SDS011;5324;50.684;3.862;2024-01-25T08:31:16;25.80;;;8.17;;
10550;SDS011;5324;50.684;3.862;2024-01-25T08:33:42;28.43;;;8.17;;
10550;SDS011;5324;50.684;3.862;2024-01-25T08:36:12;21.87;;;7.43;;
10550;SDS011;5324;50.684;3.862;2024-01-25T08:38:38;26.33;;;7.67;;
10550;SDS011;5324;50.684;3.862;2024-01-25T08:41:04;21.43;;;6.97;;
10550;SDS011;5324;50.684;3.862;2024-01-25T08:43:30;25.70;;;7.67;;
10550;SDS011;5324;50.684;3.862;2024-01-25T08:45:56;28.33;;;7.60;;
10550;SDS011;5324;50.684;3.862;2024-01-25T08:48:22;15.63;;;6.57;;
10550;SDS011;5324;50.684;3.862;2024-01-25T08:50:48;19.17;;;6.93;;
10550;SDS011;5324;50.684;3.862;2024-01-25T08:53:18;18.30;;;5.43;;
10550;SDS011;5324;50.684;3.862;2024-01-25T08:55:47;18.23;;;7.07;;
10550;SDS011;5324;50.684;3.862;2024-01-25T08:58:13;17.87;;;6.90;;
10550;SDS011;5324;50.684;3.862;2024-01-25T09:00:39;19.37;;;6.90;;
10550;SDS011;5324;50.684;3.862;2024-01-25T09:03:05;24.23;;;7.30;;
10550;SDS011;5324;50.684;3.862;2024-01-25T09:05:31;22.53;;;7.03;;
10550;SDS011;5324;50.684;3.862;2024-01-25T09:07:59;25.17;;;7.70;;
10550;SDS011;5324;50.684;3.862;2024-01-25T09:10:25;24.33;;;7.17;;
10550;SDS011;5324;50.684;3.862;2024-01-25T09:12:51;27.60;;;7.27;;
10550;SDS011;5324;50.684;3.862;2024-01-25T09:15:19;20.77;;;7.00;;
10550;SDS011;5324;50.684;3.862;2024-01-25T09:17:45;20.63;;;6.00;;
10550;SDS011;5324;50.684;3.862;2024-01-25T09:20:11;20.87;;;6.23;;
10550;SDS011;5324;50.684;3.862;2024-01-25T09:22:37;21.20;;;7.77;;
10550;SDS011;5324;50.684;3.862;2024-01-25T09:25:03;23.23;;;7.13;;
10550;SDS011;5324;50.684;3.862;2024-01-25T09:27:29;28.33;;;7.43;;
10550;SDS011;5324;50.684;3.862;2024-01-25T09:29:55;27.20;;;7.67;;
10550;SDS011;5324;50.684;3.862;2024-01-25T09:32:21;20.60;;;7.10;;
10550;SDS011;5324;50.684;3.862;2024-01-25T09:34:47;17.80;;;6.93;;
10550;SDS011;5324;50.684;3.862;2024-01-25T09:37:13;24.30;;;7.00;;
10550;SDS011;5324;50.684;3.862;2024-01-25T09:39:40;16.97;;;7.23;;
10550;SDS011;5324;50.684;3.862;2024-01-25T09:42:06;19.47;;;6.93;;
10550;SDS011;5324;50.684;3.862;2024-01-25T09:44:33;22.60;;;6.77;;
10550;SDS011;5324;50.684;3.862;2024-01-25T09:47:01;20.77;;;6.40;;
10550;SDS011;5324;50.684;3.862;2024-01-25T09:49:29;19.83;;;6.57;;
10550;SDS011;5324;50.684;3.862;2024-01-25T09:51:55;22.37;;;6.83;;
10550;SDS011;5324;50.684;3.862;2024-01-25T09:54:21;24.47;;;7.10;;
10550;SDS011;5324;50.684;3.862;2024-01-25T09:56:47;18.13;;;6.57;;
10550;SDS011;5324;50.684;3.862;2024-01-25T09:59:16;20.90;;;6.47;;
10550;SDS011;5324;50.684;3.862;2024-01-25T10:01:43;19.33;;;6.10;;
10550;SDS011;5324;50.684;3.862;2024-01-25T10:04:11;17.93;;;6.67;;
10550;SDS011;5324;50.684;3.862;2024-01-25T10:06:37;25.60;;;6.17;;
10550;SDS011;5324;50.684;3.862;2024-01-25T10:09:04;17.63;;;7.13;;
10550;SDS011;5324;50.684;3.862;2024-01-25T10:11:30;18.83;;;6.10;;
10550;SDS011;5324;50.684;3.862;2024-01-25T10:14:00;20.73;;;6.63;;
10550;SDS011;5324;50.684;3.862;2024-01-25T10:16:26;19.63;;;7.17;;
10550;SDS011;5324;50.684;3.862;2024-01-25T10:18:53;22.43;;;6.87;;
10550;SDS011;5324;50.684;3.862;2024-01-25T10:21:19;21.27;;;6.03;;
10550;SDS011;5324;50.684;3.862;2024-01-25T10:23:46;19.93;;;7.23;;
10550;SDS011;5324;50.684;3.862;2024-01-25T10:26:12;20.30;;;7.17;;
10550;SDS011;5324;50.684;3.862;2024-01-25T10:28:39;18.97;;;6.83;;
10550;SDS011;5324;50.684;3.862;2024-01-25T10:31:05;16.63;;;6.60;;
10550;SDS011;5324;50.684;3.862;2024-01-25T10:33:32;21.20;;;7.70;;
10550;SDS011;5324;50.684;3.862;2024-01-25T10:35:59;11.83;;;5.00;;
10550;SDS011;5324;50.684;3.862;2024-01-25T10:38:32;20.83;;;6.67;;
10550;SDS011;5324;50.684;3.862;2024-01-25T10:41:04;20.27;;;6.60;;
10550;SDS011;5324;50.684;3.862;2024-01-25T10:43:33;24.33;;;6.23;;
10550;SDS011;5324;50.684;3.862;2024-01-25T10:45:59;19.10;;;6.63;;
10550;SDS011;5324;50.684;3.862;2024-01-25T10:48:26;17.80;;;5.93;;
10550;SDS011;5324;50.684;3.862;2024-01-25T10:50:55;20.20;;;5.67;;
10550;SDS011;5324;50.684;3.862;2024-01-25T10:53:22;17.60;;;5.90;;
10550;SDS011;5324;50.684;3.862;2024-01-25T10:55:50;17.37;;;5.20;;
10550;SDS011;5324;50.684;3.862;2024-01-25T10:58:16;14.10;;;5.17;;
10550;SDS011;5324;50.684;3.862;2024-01-25T11:00:52;18.20;;;4.50;;
10550;SDS011;5324;50.684;3.862;2024-01-25T11:03:29;19.30;;;4.90;;
10550;SDS011;5324;50.684;3.862;2024-01-25T11:06:06;10.40;;;4.10;;
10550;SDS011;5324;50.684;3.862;2024-01-25T11:08:33;13.43;;;4.87;;
10550;SDS011;5324;50.684;3.862;2024-01-25T11:11:05;19.13;;;4.67;;
10550;SDS011;5324;50.684;3.862;2024-01-25T11:13:33;11.63;;;3.97;;
10550;SDS011;5324;50.684;3.862;2024-01-25T11:15:59;11.70;;;3.97;;
10550;SDS011;5324;50.684;3.862;2024-01-25T11:18:25;11.07;;;4.20;;
10550;SDS011;5324;50.684;3.862;2024-01-25T11:20:51;7.50;;;4.50;;
10550;SDS011;5324;50.684;3.862;2024-01-25T11:23:17;8.17;;;4.00;;
10550;SDS011;5324;50.684;3.862;2024-01-25T11:25:44;11.33;;;4.87;;
10550;SDS011;5324;50.684;3.862;2024-01-25T11:28:11;8.37;;;3.90;;
10550;SDS011;5324;50.684;3.862;2024-01-25T11:30:39;11.00;;;4.37;;
10550;SDS011;5324;50.684;3.862;2024-01-25T11:33:09;10.53;;;4.60;;
10550;SDS011;5324;50.684;3.862;2024-01-25T11:35:35;11.10;;;4.17;;
10550;SDS011;5324;50.684;3.862;2024-01-25T11:38:02;7.30;;;3.90;;
10550;SDS011;5324;50.684;3.862;2024-01-25T11:40:28;13.30;;;4.50;;
10550;SDS011;5324;50.684;3.862;2024-01-25T11:42:56;11.23;;;5.47;;
10550;SDS011;5324;50.684;3.862;2024-01-25T11:45:22;9.27;;;4.03;;
10550;SDS011;5324;50.684;3.862;2024-01-25T11:47:49;7.17;;;3.73;;
10550;SDS011;5324;50.684;3.862;2024-01-25T11:50:15;7.43;;;3.37;;
10550;SDS011;5324;50.684;3.862;2024-01-25T11:52:41;12.47;;;4.03;;
10550;SDS011;5324;50.684;3.862;2024-01-25T11:55:08;7.83;;;3.43;;
10550;SDS011;5324;50.684;3.862;2024-01-25T12:00:01;6.40;;;3.20;;
10550;SDS011;5324;50.684;3.862;2024-01-25T12:02:27;7.00;;;3.53;;
10550;SDS011;5324;50.684;3.862;2024-01-25T12:04:55;7.93;;;3.10;;
10550;SDS011;5324;50.684;3.862;2024-01-25T12:07:22;4.93;;;2.80;;
10550;SDS011;5324;50.684;3.862;2024-01-25T12:09:58;3.50;;;2.80;;
10550;SDS011;5324;50.684;3.862;2024-01-25T12:12:24;5.60;;;3.17;;
10550;SDS011;5324;50.684;3.862;2024-01-25T12:14:56;6.07;;;3.30;;
10550;SDS011;5324;50.684;3.862;2024-01-25T12:17:22;6.00;;;3.33;;
10550;SDS011;5324;50.684;3.862;2024-01-25T12:19:48;4.33;;;3.40;;
10550;SDS011;5324;50.684;3.862;2024-01-25T12:22:19;5.53;;;3.30;;
10550;SDS011;5324;50.684;3.862;2024-01-25T12:24:46;4.07;;;2.97;;
10550;SDS011;5324;50.684;3.862;2024-01-25T12:27:14;4.33;;;3.33;;
10550;SDS011;5324;50.684;3.862;2024-01-25T12:29:41;4.23;;;3.07;;
10550;SDS011;5324;50.684;3.862;2024-01-25T12:32:08;5.53;;;3.23;;
10550;SDS011;5324;50.684;3.862;2024-01-25T12:34:34;4.87;;;3.33;;
10550;SDS011;5324;50.684;3.862;2024-01-25T12:37:02;5.47;;;2.93;;
10550;SDS011;5324;50.684;3.862;2024-01-25T12:39:29;4.67;;;2.97;;
10550;SDS011;5324;50.684;3.862;2024-01-25T12:41:55;4.37;;;2.93;;
10550;SDS011;5324;50.684;3.862;2024-01-25T12:44:21;3.57;;;2.80;;
10550;SDS011;5324;50.684;3.862;2024-01-25T12:46:48;5.00;;;3.00;;
10550;SDS011;5324;50.684;3.862;2024-01-25T12:49:15;3.93;;;2.90;;
10550;SDS011;5324;50.684;3.862;2024-01-25T12:51:41;5.20;;;3.13;;
10550;SDS011;5324;50.684;3.862;2024-01-25T12:54:07;5.30;;;3.53;;
10550;SDS011;5324;50.684;3.862;2024-01-25T12:56:33;6.17;;;3.17;;
10550;SDS011;5324;50.684;3.862;2024-01-25T12:58:59;4.70;;;3.03;;
10550;SDS011;5324;50.684;3.862;2024-01-25T13:01:25;5.07;;;2.77;;
10550;SDS011;5324;50.684;3.862;2024-01-25T13:03:52;6.97;;;3.33;;
10550;SDS011;5324;50.684;3.862;2024-01-25T13:06:18;2.97;;;2.50;;
10550;SDS011;5324;50.684;3.862;2024-01-25T13:08:44;4.37;;;2.67;;
10550;SDS011;5324;50.684;3.862;2024-01-25T13:11:11;4.33;;;2.63;;
10550;SDS011;5324;50.684;3.862;2024-01-25T13:13:37;4.37;;;3.13;;
10550;SDS011;5324;50.684;3.862;2024-01-25T13:16:03;7.17;;;3.10;;
10550;SDS011;5324;50.684;3.862;2024-01-25T13:18:29;4.10;;;2.90;;
10550;SDS011;5324;50.684;3.862;2024-01-25T13:20:55;3.83;;;2.97;;
10550;SDS011;5324;50.684;3.862;2024-01-25T13:23:21;3.37;;;2.90;;
10550;SDS011;5324;50.684;3.862;2024-01-25T13:25:47;4.93;;;3.10;;
10550;SDS011;5324;50.684;3.862;2024-01-25T13:28:13;7.00;;;3.40;;
10550;SDS011;5324;50.684;3.862;2024-01-25T13:30:39;4.17;;;3.00;;
10550;SDS011;5324;50.684;3.862;2024-01-25T13:33:05;4.63;;;3.30;;
10550;SDS011;5324;50.684;3.862;2024-01-25T13:35:32;5.50;;;3.30;;
10550;SDS011;5324;50.684;3.862;2024-01-25T13:37:58;4.37;;;3.00;;
10550;SDS011;5324;50.684;3.862;2024-01-25T13:40:25;5.73;;;3.23;;
10550;SDS011;5324;50.684;3.862;2024-01-25T13:42:51;4.67;;;3.07;;
10550;SDS011;5324;50.684;3.862;2024-01-25T13:45:19;4.20;;;2.93;;
10550;SDS011;5324;50.684;3.862;2024-01-25T13:47:45;5.37;;;3.60;;
10550;SDS011;5324;50.684;3.862;2024-01-25T13:50:11;7.00;;;4.07;;
10550;SDS011;5324;50.684;3.862;2024-01-25T13:52:37;7.50;;;4.00;;
10550;SDS011;5324;50.684;3.862;2024-01-25T13:55:04;6.00;;;4.40;;
10550;SDS011;5324;50.684;3.862;2024-01-25T13:57:30;8.10;;;4.70;;
10550;SDS011;5324;50.684;3.862;2024-01-25T13:59:56;6.07;;;4.80;;
10550;SDS011;5324;50.684;3.862;2024-01-25T14:02:22;9.27;;;5.40;;
10550;SDS011;5324;50.684;3.862;2024-01-25T14:04:48;6.50;;;5.20;;
10550;SDS011;5324;50.684;3.862;2024-01-25T14:07:15;6.80;;;5.47;;
10550;SDS011;5324;50.684;3.862;2024-01-25T14:09:45;7.37;;;5.43;;
10550;SDS011;5324;50.684;3.862;2024-01-25T14:12:12;7.23;;;5.70;;
10550;SDS011;5324;50.684;3.862;2024-01-25T14:14:38;9.23;;;6.27;;
10550;SDS011;5324;50.684;3.862;2024-01-25T14:17:04;11.47;;;5.80;;
10550;SDS011;5324;50.684;3.862;2024-01-25T14:19:30;9.30;;;5.97;;
10550;SDS011;5324;50.684;3.862;2024-01-25T14:21:56;8.50;;;5.30;;
10550;SDS011;5324;50.684;3.862;2024-01-25T14:24:22;8.63;;;6.40;;
10550;SDS011;5324;50.684;3.862;2024-01-25T14:26:48;6.63;;;5.93;;
10550;SDS011;5324;50.684;3.862;2024-01-25T14:29:14;9.67;;;7.13;;
10550;SDS011;5324;50.684;3.862;2024-01-25T14:31:40;9.33;;;5.90;;
10550;SDS011;5324;50.684;3.862;2024-01-25T14:34:07;6.50;;;5.60;;
10550;SDS011;5324;50.684;3.862;2024-01-25T14:36:34;6.47;;;5.77;;
10550;SDS011;5324;50.684;3.862;2024-01-25T14:39:00;9.83;;;6.67;;
10550;SDS011;5324;50.684;3.862;2024-01-25T14:41:27;8.90;;;6.07;;
10550;SDS011;5324;50.684;3.862;2024-01-25T14:43:53;8.80;;;6.10;;
10550;SDS011;5324;50.684;3.862;2024-01-25T14:46:19;7.13;;;6.10;;
10550;SDS011;5324;50.684;3.862;2024-01-25T14:48:45;6.50;;;5.30;;